sensor_id;sensor_type;location;lat;lon;timestamp;temperature;humidity
20546;DHT22;10431;50.228;9.112;2023-05-07T00:00:22;20.00;91.20
20546;DHT22;10431;50.228;9.112;2023-05-07T00:02:48;20.00;91.20
20546;DHT22;10431;50.228;9.112;2023-05-07T00:05:15;20.00;91.20
20546;DHT22;10431;50.228;9.112;2023-05-07T00:07:41;20.00;91.20
20546;DHT22;10431;50.228;9.112;2023-05-07T00:10:07;20.00;91.20
20546;DHT22;10431;50.228;9.112;2023-05-07T00:12:34;20.00;91.20
20546;DHT22;10431;50.228;9.112;2023-05-07T00:15:03;20.00;91.20
20546;DHT22;10431;50.228;9.112;2023-05-07T00:17:30;20.00;91.20
20546;DHT22;10431;50.228;9.112;2023-05-07T00:19:57;20.00;91.20
20546;DHT22;10431;50.228;9.112;2023-05-07T00:22:23;20.00;91.50
20546;DHT22;10431;50.228;9.112;2023-05-07T00:24:49;20.00;91.20
20546;DHT22;10431;50.228;9.112;2023-05-07T00:27:16;20.00;91.20
20546;DHT22;10431;50.228;9.112;2023-05-07T00:29:42;20.00;91.20
20546;DHT22;10431;50.228;9.112;2023-05-07T00:32:08;20.00;91.20
20546;DHT22;10431;50.228;9.112;2023-05-07T00:34:35;20.00;91.20
20546;DHT22;10431;50.228;9.112;2023-05-07T00:37:01;20.00;91.50
20546;DHT22;10431;50.228;9.112;2023-05-07T00:39:27;20.00;91.20
20546;DHT22;10431;50.228;9.112;2023-05-07T00:41:53;20.00;91.20
20546;DHT22;10431;50.228;9.112;2023-05-07T00:44:20;20.00;91.20
20546;DHT22;10431;50.228;9.112;2023-05-07T00:46:46;20.00;91.20
20546;DHT22;10431;50.228;9.112;2023-05-07T00:49:16;20.00;91.20
20546;DHT22;10431;50.228;9.112;2023-05-07T00:51:42;20.00;91.20
20546;DHT22;10431;50.228;9.112;2023-05-07T00:54:08;20.00;91.20
20546;DHT22;10431;50.228;9.112;2023-05-07T00:56:35;20.00;91.10
20546;DHT22;10431;50.228;9.112;2023-05-07T00:59:02;20.00;91.20
20546;DHT22;10431;50.228;9.112;2023-05-07T01:01:29;20.00;91.20
20546;DHT22;10431;50.228;9.112;2023-05-07T01:03:56;20.00;91.10
20546;DHT22;10431;50.228;9.112;2023-05-07T01:06:23;20.00;91.10
20546;DHT22;10431;50.228;9.112;2023-05-07T01:08:50;20.00;91.20
20546;DHT22;10431;50.228;9.112;2023-05-07T01:11:19;20.00;91.10
20546;DHT22;10431;50.228;9.112;2023-05-07T01:13:47;20.00;91.20
20546;DHT22;10431;50.228;9.112;2023-05-07T01:16:15;20.00;91.10
20546;DHT22;10431;50.228;9.112;2023-05-07T01:18:41;20.00;91.10
20546;DHT22;10431;50.228;9.112;2023-05-07T01:21:11;20.00;91.10
20546;DHT22;10431;50.228;9.112;2023-05-07T01:23:38;20.00;91.10
20546;DHT22;10431;50.228;9.112;2023-05-07T01:26:05;20.00;91.10
20546;DHT22;10431;50.228;9.112;2023-05-07T01:28:33;20.00;91.10
20546;DHT22;10431;50.228;9.112;2023-05-07T01:31:03;20.00;91.10
20546;DHT22;10431;50.228;9.112;2023-05-07T01:33:32;20.00;91.10
20546;DHT22;10431;50.228;9.112;2023-05-07T01:35:59;20.00;91.10
20546;DHT22;10431;50.228;9.112;2023-05-07T01:38:28;20.00;91.10
20546;DHT22;10431;50.228;9.112;2023-05-07T01:40:55;20.00;91.10
20546;DHT22;10431;50.228;9.112;2023-05-07T01:43:21;20.00;91.10
20546;DHT22;10431;50.228;9.112;2023-05-07T01:45:48;20.00;91.10
20546;DHT22;10431;50.228;9.112;2023-05-07T01:48:15;20.00;91.10
20546;DHT22;10431;50.228;9.112;2023-05-07T01:50:42;20.00;91.10
20546;DHT22;10431;50.228;9.112;2023-05-07T01:53:09;20.00;91.10
20546;DHT22;10431;50.228;9.112;2023-05-07T01:55:35;20.00;91.10
20546;DHT22;10431;50.228;9.112;2023-05-07T01:58:03;20.00;91.10
20546;DHT22;10431;50.228;9.112;2023-05-07T02:00:30;20.00;91.10
20546;DHT22;10431;50.228;9.112;2023-05-07T02:02:56;20.00;91.10
20546;DHT22;10431;50.228;9.112;2023-05-07T02:05:45;20.00;91.10
20546;DHT22;10431;50.228;9.112;2023-05-07T02:08:19;20.00;91.10
20546;DHT22;10431;50.228;9.112;2023-05-07T02:10:45;20.00;91.10
20546;DHT22;10431;50.228;9.112;2023-05-07T02:13:11;20.00;91.10
20546;DHT22;10431;50.228;9.112;2023-05-07T02:15:38;20.00;91.10
20546;DHT22;10431;50.228;9.112;2023-05-07T02:18:08;20.00;91.10
20546;DHT22;10431;50.228;9.112;2023-05-07T02:20:37;20.00;91.10
20546;DHT22;10431;50.228;9.112;2023-05-07T02:23:04;20.00;91.10
20546;DHT22;10431;50.228;9.112;2023-05-07T02:25:30;20.00;91.10
20546;DHT22;10431;50.228;9.112;2023-05-07T02:27:56;20.00;91.10
20546;DHT22;10431;50.228;9.112;2023-05-07T02:30:30;19.90;91.00
20546;DHT22;10431;50.228;9.112;2023-05-07T02:32:58;20.00;91.10
20546;DHT22;10431;50.228;9.112;2023-05-07T02:35:25;20.00;91.10
20546;DHT22;10431;50.228;9.112;2023-05-07T02:37:52;20.00;91.10
20546;DHT22;10431;50.228;9.112;2023-05-07T02:40:18;20.00;91.10
20546;DHT22;10431;50.228;9.112;2023-05-07T02:42:44;20.00;91.10
20546;DHT22;10431;50.228;9.112;2023-05-07T02:45:11;20.00;91.10
20546;DHT22;10431;50.228;9.112;2023-05-07T02:47:38;20.00;91.10
20546;DHT22;10431;50.228;9.112;2023-05-07T02:50:04;20.00;91.10
20546;DHT22;10431;50.228;9.112;2023-05-07T02:52:31;20.00;91.10
20546;DHT22;10431;50.228;9.112;2023-05-07T02:54:57;20.00;91.10
20546;DHT22;10431;50.228;9.112;2023-05-07T02:57:24;20.00;91.10
20546;DHT22;10431;50.228;9.112;2023-05-07T02:59:50;20.00;91.10
20546;DHT22;10431;50.228;9.112;2023-05-07T03:02:18;20.00;91.10
20546;DHT22;10431;50.228;9.112;2023-05-07T03:04:44;19.90;91.10
20546;DHT22;10431;50.228;9.112;2023-05-07T03:07:11;19.90;91.10
20546;DHT22;10431;50.228;9.112;2023-05-07T03:09:37;19.90;91.10
20546;DHT22;10431;50.228;9.112;2023-05-07T03:12:03;19.90;91.10
20546;DHT22;10431;50.228;9.112;2023-05-07T03:14:30;20.00;91.10
20546;DHT22;10431;50.228;9.112;2023-05-07T03:16:56;20.00;91.10
20546;DHT22;10431;50.228;9.112;2023-05-07T03:19:23;19.90;91.10
20546;DHT22;10431;50.228;9.112;2023-05-07T03:21:49;19.90;91.10
20546;DHT22;10431;50.228;9.112;2023-05-07T03:24:15;20.00;91.10
20546;DHT22;10431;50.228;9.112;2023-05-07T03:26:41;19.90;91.10
20546;DHT22;10431;50.228;9.112;2023-05-07T03:29:08;19.90;91.10
20546;DHT22;10431;50.228;9.112;2023-05-07T03:31:34;19.90;91.10
20546;DHT22;10431;50.228;9.112;2023-05-07T03:34:01;19.90;91.10
20546;DHT22;10431;50.228;9.112;2023-05-07T03:36:27;19.90;91.00
20546;DHT22;10431;50.228;9.112;2023-05-07T03:38:55;19.90;91.10
20546;DHT22;10431;50.228;9.112;2023-05-07T03:41:24;19.90;91.10
20546;DHT22;10431;50.228;9.112;2023-05-07T03:43:51;19.90;91.10
20546;DHT22;10431;50.228;9.112;2023-05-07T03:46:18;19.90;91.10
20546;DHT22;10431;50.228;9.112;2023-05-07T03:48:44;19.90;91.10
20546;DHT22;10431;50.228;9.112;2023-05-07T03:51:12;19.90;91.10
20546;DHT22;10431;50.228;9.112;2023-05-07T03:53:39;19.90;91.10
20546;DHT22;10431;50.228;9.112;2023-05-07T03:56:05;19.90;91.10
20546;DHT22;10431;50.228;9.112;2023-05-07T03:58:35;19.90;91.10
20546;DHT22;10431;50.228;9.112;2023-05-07T04:01:06;19.90;91.10
20546;DHT22;10431;50.228;9.112;2023-05-07T04:03:33;19.90;91.10
20546;DHT22;10431;50.228;9.112;2023-05-07T04:06:00;19.90;91.10
20546;DHT22;10431;50.228;9.112;2023-05-07T04:08:26;19.90;91.10
20546;DHT22;10431;50.228;9.112;2023-05-07T04:10:57;19.90;91.20
20546;DHT22;10431;50.228;9.112;2023-05-07T04:13:26;19.90;91.10
20546;DHT22;10431;50.228;9.112;2023-05-07T04:15:54;19.90;91.10
20546;DHT22;10431;50.228;9.112;2023-05-07T04:18:21;19.90;91.10
20546;DHT22;10431;50.228;9.112;2023-05-07T04:20:48;19.90;91.10
20546;DHT22;10431;50.228;9.112;2023-05-07T04:23:17;19.90;91.10
20546;DHT22;10431;50.228;9.112;2023-05-07T04:25:44;19.90;91.10
20546;DHT22;10431;50.228;9.112;2023-05-07T04:28:43;19.90;91.10
20546;DHT22;10431;50.228;9.112;2023-05-07T04:31:10;19.90;91.10
20546;DHT22;10431;50.228;9.112;2023-05-07T04:33:37;19.90;91.10
20546;DHT22;10431;50.228;9.112;2023-05-07T04:36:05;19.90;91.10
20546;DHT22;10431;50.228;9.112;2023-05-07T04:38:36;19.90;91.10
20546;DHT22;10431;50.228;9.112;2023-05-07T04:41:04;19.90;91.10
20546;DHT22;10431;50.228;9.112;2023-05-07T04:43:33;19.90;91.10
20546;DHT22;10431;50.228;9.112;2023-05-07T04:45:59;19.90;91.00
20546;DHT22;10431;50.228;9.112;2023-05-07T04:48:27;19.90;91.10
20546;DHT22;10431;50.228;9.112;2023-05-07T04:50:54;19.90;91.10
20546;DHT22;10431;50.228;9.112;2023-05-07T04:53:21;19.90;91.10
20546;DHT22;10431;50.228;9.112;2023-05-07T04:55:55;19.90;91.10
20546;DHT22;10431;50.228;9.112;2023-05-07T04:58:22;19.90;91.10
20546;DHT22;10431;50.228;9.112;2023-05-07T05:00:49;19.90;91.10
20546;DHT22;10431;50.228;9.112;2023-05-07T05:03:15;19.90;91.10
20546;DHT22;10431;50.228;9.112;2023-05-07T05:05:41;19.90;91.10
20546;DHT22;10431;50.228;9.112;2023-05-07T05:08:08;19.90;91.10
20546;DHT22;10431;50.228;9.112;2023-05-07T05:10:37;19.90;91.00
20546;DHT22;10431;50.228;9.112;2023-05-07T05:13:05;19.90;91.10
20546;DHT22;10431;50.228;9.112;2023-05-07T05:15:31;19.90;91.10
20546;DHT22;10431;50.228;9.112;2023-05-07T05:17:58;19.90;91.10
20546;DHT22;10431;50.228;9.112;2023-05-07T05:20:24;19.90;91.10
20546;DHT22;10431;50.228;9.112;2023-05-07T05:22:50;19.90;91.10
20546;DHT22;10431;50.228;9.112;2023-05-07T05:25:16;19.90;91.10
20546;DHT22;10431;50.228;9.112;2023-05-07T05:27:42;19.90;91.00
20546;DHT22;10431;50.228;9.112;2023-05-07T05:30:09;19.90;91.00
20546;DHT22;10431;50.228;9.112;2023-05-07T05:32:36;19.90;91.10
20546;DHT22;10431;50.228;9.112;2023-05-07T05:35:03;19.90;91.10
20546;DHT22;10431;50.228;9.112;2023-05-07T05:37:30;19.90;91.10
20546;DHT22;10431;50.228;9.112;2023-05-07T05:39:58;19.90;91.10
20546;DHT22;10431;50.228;9.112;2023-05-07T05:42:26;19.90;91.10
20546;DHT22;10431;50.228;9.112;2023-05-07T05:44:53;19.90;91.10
20546;DHT22;10431;50.228;9.112;2023-05-07T05:47:20;19.90;91.10
20546;DHT22;10431;50.228;9.112;2023-05-07T05:49:46;19.90;91.10
20546;DHT22;10431;50.228;9.112;2023-05-07T05:52:15;19.90;91.10
20546;DHT22;10431;50.228;9.112;2023-05-07T05:54:42;19.90;91.10
20546;DHT22;10431;50.228;9.112;2023-05-07T05:57:09;19.90;91.10
20546;DHT22;10431;50.228;9.112;2023-05-07T05:59:35;19.90;91.10
20546;DHT22;10431;50.228;9.112;2023-05-07T06:02:01;19.90;91.10
20546;DHT22;10431;50.228;9.112;2023-05-07T06:04:28;19.90;91.10
20546;DHT22;10431;50.228;9.112;2023-05-07T06:06:55;19.90;91.10
20546;DHT22;10431;50.228;9.112;2023-05-07T06:09:23;19.90;91.10
20546;DHT22;10431;50.228;9.112;2023-05-07T06:11:50;19.90;91.10
20546;DHT22;10431;50.228;9.112;2023-05-07T06:14:17;19.90;91.10
20546;DHT22;10431;50.228;9.112;2023-05-07T06:16:44;19.80;91.00
20546;DHT22;10431;50.228;9.112;2023-05-07T06:19:10;19.90;91.10
20546;DHT22;10431;50.228;9.112;2023-05-07T06:21:39;19.90;91.10
20546;DHT22;10431;50.228;9.112;2023-05-07T06:24:06;19.90;91.10
20546;DHT22;10431;50.228;9.112;2023-05-07T06:26:33;19.90;91.10
20546;DHT22;10431;50.228;9.112;2023-05-07T06:28:59;19.90;91.10
20546;DHT22;10431;50.228;9.112;2023-05-07T06:31:29;19.80;91.10
20546;DHT22;10431;50.228;9.112;2023-05-07T06:34:02;19.80;91.10
20546;DHT22;10431;50.228;9.112;2023-05-07T06:36:34;19.90;91.20
20546;DHT22;10431;50.228;9.112;2023-05-07T06:39:05;19.90;91.10
20546;DHT22;10431;50.228;9.112;2023-05-07T06:41:31;19.80;91.10
20546;DHT22;10431;50.228;9.112;2023-05-07T06:44:04;19.90;91.20
20546;DHT22;10431;50.228;9.112;2023-05-07T06:46:37;19.90;91.10
20546;DHT22;10431;50.228;9.112;2023-05-07T06:49:04;19.90;91.10
20546;DHT22;10431;50.228;9.112;2023-05-07T06:51:31;19.90;91.10
20546;DHT22;10431;50.228;9.112;2023-05-07T06:54:01;19.90;91.00
20546;DHT22;10431;50.228;9.112;2023-05-07T06:56:28;19.80;91.00
20546;DHT22;10431;50.228;9.112;2023-05-07T06:58:54;19.80;91.00
20546;DHT22;10431;50.228;9.112;2023-05-07T07:01:21;19.80;91.00
20546;DHT22;10431;50.228;9.112;2023-05-07T07:03:47;19.80;90.90
20546;DHT22;10431;50.228;9.112;2023-05-07T07:06:13;19.80;90.90
20546;DHT22;10431;50.228;9.112;2023-05-07T07:08:40;19.80;90.90
20546;DHT22;10431;50.228;9.112;2023-05-07T07:11:10;19.80;90.60
20546;DHT22;10431;50.228;9.112;2023-05-07T07:13:37;19.80;90.20
20546;DHT22;10431;50.228;9.112;2023-05-07T07:16:03;19.70;90.20
20546;DHT22;10431;50.228;9.112;2023-05-07T07:18:30;19.70;90.20
20546;DHT22;10431;50.228;9.112;2023-05-07T07:20:58;19.60;90.80
20546;DHT22;10431;50.228;9.112;2023-05-07T07:23:25;19.70;90.40
20546;DHT22;10431;50.228;9.112;2023-05-07T07:25:52;19.80;90.40
20546;DHT22;10431;50.228;9.112;2023-05-07T07:28:20;19.80;90.30
20546;DHT22;10431;50.228;9.112;2023-05-07T07:30:47;19.80;90.30
20546;DHT22;10431;50.228;9.112;2023-05-07T07:33:14;19.90;90.40
20546;DHT22;10431;50.228;9.112;2023-05-07T07:35:41;19.90;90.40
20546;DHT22;10431;50.228;9.112;2023-05-07T07:38:07;19.90;90.40
20546;DHT22;10431;50.228;9.112;2023-05-07T07:40:37;19.90;90.40
20546;DHT22;10431;50.228;9.112;2023-05-07T07:43:05;19.90;90.40
20546;DHT22;10431;50.228;9.112;2023-05-07T07:45:32;19.90;90.40
20546;DHT22;10431;50.228;9.112;2023-05-07T07:47:58;19.90;90.40
20546;DHT22;10431;50.228;9.112;2023-05-07T07:50:24;19.90;90.40
20546;DHT22;10431;50.228;9.112;2023-05-07T07:52:51;19.90;90.40
20546;DHT22;10431;50.228;9.112;2023-05-07T07:55:20;20.00;90.80
20546;DHT22;10431;50.228;9.112;2023-05-07T07:57:49;19.90;90.40
20546;DHT22;10431;50.228;9.112;2023-05-07T08:00:17;20.00;90.50
20546;DHT22;10431;50.228;9.112;2023-05-07T08:02:43;20.00;90.60
20546;DHT22;10431;50.228;9.112;2023-05-07T08:05:12;19.90;90.30
20546;DHT22;10431;50.228;9.112;2023-05-07T08:07:39;19.90;90.40
20546;DHT22;10431;50.228;9.112;2023-05-07T08:10:06;20.00;90.40
20546;DHT22;10431;50.228;9.112;2023-05-07T08:12:32;20.00;90.40
20546;DHT22;10431;50.228;9.112;2023-05-07T08:14:58;20.00;90.50
20546;DHT22;10431;50.228;9.112;2023-05-07T08:17:25;20.00;90.60
20546;DHT22;10431;50.228;9.112;2023-05-07T08:19:51;20.00;90.60
20546;DHT22;10431;50.228;9.112;2023-05-07T08:22:19;20.00;90.50
20546;DHT22;10431;50.228;9.112;2023-05-07T08:24:45;20.00;90.50
20546;DHT22;10431;50.228;9.112;2023-05-07T08:27:12;20.10;90.60
20546;DHT22;10431;50.228;9.112;2023-05-07T08:29:41;20.10;90.50
20546;DHT22;10431;50.228;9.112;2023-05-07T08:32:08;20.10;90.60
20546;DHT22;10431;50.228;9.112;2023-05-07T08:34:34;20.10;90.40
20546;DHT22;10431;50.228;9.112;2023-05-07T08:37:03;20.10;90.40
20546;DHT22;10431;50.228;9.112;2023-05-07T08:39:30;20.10;90.60
20546;DHT22;10431;50.228;9.112;2023-05-07T08:42:00;20.10;90.60
20546;DHT22;10431;50.228;9.112;2023-05-07T08:44:32;20.10;90.50
20546;DHT22;10431;50.228;9.112;2023-05-07T08:47:01;20.10;90.70
20546;DHT22;10431;50.228;9.112;2023-05-07T08:49:29;20.10;90.60
20546;DHT22;10431;50.228;9.112;2023-05-07T08:51:56;20.10;90.60
20546;DHT22;10431;50.228;9.112;2023-05-07T08:54:23;20.10;90.70
20546;DHT22;10431;50.228;9.112;2023-05-07T08:56:49;20.10;90.90
20546;DHT22;10431;50.228;9.112;2023-05-07T08:59:16;20.10;90.80
20546;DHT22;10431;50.228;9.112;2023-05-07T09:01:43;20.10;90.90
20546;DHT22;10431;50.228;9.112;2023-05-07T09:04:10;20.20;91.00
20546;DHT22;10431;50.228;9.112;2023-05-07T09:06:39;20.10;91.00
20546;DHT22;10431;50.228;9.112;2023-05-07T09:09:09;20.20;91.00
20546;DHT22;10431;50.228;9.112;2023-05-07T09:11:35;20.10;91.00
20546;DHT22;10431;50.228;9.112;2023-05-07T09:14:02;20.10;91.00
20546;DHT22;10431;50.228;9.112;2023-05-07T09:16:33;20.20;91.00
20546;DHT22;10431;50.228;9.112;2023-05-07T09:19:00;20.20;91.30
20546;DHT22;10431;50.228;9.112;2023-05-07T09:21:27;20.20;91.10
20546;DHT22;10431;50.228;9.112;2023-05-07T09:23:56;20.20;91.10
20546;DHT22;10431;50.228;9.112;2023-05-07T09:26:28;20.20;91.10
20546;DHT22;10431;50.228;9.112;2023-05-07T09:28:55;20.20;91.10
20546;DHT22;10431;50.228;9.112;2023-05-07T09:31:21;20.20;91.10
20546;DHT22;10431;50.228;9.112;2023-05-07T09:33:49;20.30;91.10
20546;DHT22;10431;50.228;9.112;2023-05-07T09:36:18;20.20;91.10
20546;DHT22;10431;50.228;9.112;2023-05-07T09:38:45;20.20;91.10
20546;DHT22;10431;50.228;9.112;2023-05-07T09:41:12;20.20;91.10
20546;DHT22;10431;50.228;9.112;2023-05-07T09:43:46;20.20;91.10
20546;DHT22;10431;50.228;9.112;2023-05-07T09:46:20;20.20;91.10
20546;DHT22;10431;50.228;9.112;2023-05-07T09:48:52;20.20;91.10
20546;DHT22;10431;50.228;9.112;2023-05-07T09:51:25;20.20;91.00
20546;DHT22;10431;50.228;9.112;2023-05-07T09:53:57;20.20;91.00
20546;DHT22;10431;50.228;9.112;2023-05-07T09:56:24;20.20;91.10
20546;DHT22;10431;50.228;9.112;2023-05-07T09:58:53;20.20;91.10
20546;DHT22;10431;50.228;9.112;2023-05-07T10:01:20;20.20;91.10
20546;DHT22;10431;50.228;9.112;2023-05-07T10:03:49;20.20;91.10
20546;DHT22;10431;50.228;9.112;2023-05-07T10:06:20;20.20;91.10
20546;DHT22;10431;50.228;9.112;2023-05-07T10:08:46;20.30;91.20
20546;DHT22;10431;50.228;9.112;2023-05-07T10:11:14;20.20;91.10
20546;DHT22;10431;50.228;9.112;2023-05-07T10:13:43;20.20;91.10
20546;DHT22;10431;50.228;9.112;2023-05-07T10:16:09;20.20;91.10
20546;DHT22;10431;50.228;9.112;2023-05-07T10:18:43;20.20;91.10
20546;DHT22;10431;50.228;9.112;2023-05-07T10:21:20;20.20;91.10
20546;DHT22;10431;50.228;9.112;2023-05-07T10:23:57;20.20;91.10
20546;DHT22;10431;50.228;9.112;2023-05-07T10:26:25;20.30;91.20
20546;DHT22;10431;50.228;9.112;2023-05-07T10:29:01;20.30;91.20
20546;DHT22;10431;50.228;9.112;2023-05-07T10:31:41;20.20;91.10
20546;DHT22;10431;50.228;9.112;2023-05-07T10:34:16;20.30;91.10
20546;DHT22;10431;50.228;9.112;2023-05-07T10:36:44;20.20;91.10
20546;DHT22;10431;50.228;9.112;2023-05-07T10:39:11;20.20;91.10
20546;DHT22;10431;50.228;9.112;2023-05-07T10:41:39;20.20;91.10
20546;DHT22;10431;50.228;9.112;2023-05-07T10:44:06;20.20;91.10
20546;DHT22;10431;50.228;9.112;2023-05-07T10:46:34;20.20;91.20
20546;DHT22;10431;50.228;9.112;2023-05-07T10:49:20;20.30;90.90
20546;DHT22;10431;50.228;9.112;2023-05-07T10:52:13;20.30;91.00
20546;DHT22;10431;50.228;9.112;2023-05-07T10:54:44;20.20;91.00
20546;DHT22;10431;50.228;9.112;2023-05-07T10:57:32;20.30;91.00
20546;DHT22;10431;50.228;9.112;2023-05-07T11:05:33;20.20;90.90
20546;DHT22;10431;50.228;9.112;2023-05-07T11:08:15;20.20;90.90
20546;DHT22;10431;50.228;9.112;2023-05-07T11:11:07;20.20;90.90
20546;DHT22;10431;50.228;9.112;2023-05-07T11:13:44;20.20;90.90
20546;DHT22;10431;50.228;9.112;2023-05-07T11:16:24;20.20;91.00
20546;DHT22;10431;50.228;9.112;2023-05-07T11:18:58;20.20;91.00
20546;DHT22;10431;50.228;9.112;2023-05-07T11:21:41;20.20;91.00
20546;DHT22;10431;50.228;9.112;2023-05-07T11:24:39;20.20;91.00
20546;DHT22;10431;50.228;9.112;2023-05-07T11:27:07;20.20;91.00
20546;DHT22;10431;50.228;9.112;2023-05-07T11:29:33;20.20;91.00
20546;DHT22;10431;50.228;9.112;2023-05-07T11:32:06;20.20;91.00
20546;DHT22;10431;50.228;9.112;2023-05-07T11:34:39;20.20;91.00
20546;DHT22;10431;50.228;9.112;2023-05-07T11:37:06;20.20;91.10
20546;DHT22;10431;50.228;9.112;2023-05-07T11:39:41;20.20;91.10
20546;DHT22;10431;50.228;9.112;2023-05-07T11:42:07;20.20;91.00
20546;DHT22;10431;50.228;9.112;2023-05-07T11:44:50;20.20;91.10
20546;DHT22;10431;50.228;9.112;2023-05-07T11:47:18;20.20;91.10
20546;DHT22;10431;50.228;9.112;2023-05-07T11:49:48;20.20;91.00
20546;DHT22;10431;50.228;9.112;2023-05-07T11:52:15;20.20;91.00
20546;DHT22;10431;50.228;9.112;2023-05-07T11:54:52;20.20;91.00
20546;DHT22;10431;50.228;9.112;2023-05-07T11:57:19;20.20;91.10
20546;DHT22;10431;50.228;9.112;2023-05-07T11:59:46;20.20;91.00
20546;DHT22;10431;50.228;9.112;2023-05-07T12:02:17;20.20;91.10
20546;DHT22;10431;50.228;9.112;2023-05-07T12:04:44;20.20;91.10
20546;DHT22;10431;50.228;9.112;2023-05-07T12:07:15;20.20;91.10
20546;DHT22;10431;50.228;9.112;2023-05-07T12:09:42;20.20;91.10
20546;DHT22;10431;50.228;9.112;2023-05-07T12:12:09;20.20;91.20
20546;DHT22;10431;50.228;9.112;2023-05-07T12:14:40;20.20;91.20
20546;DHT22;10431;50.228;9.112;2023-05-07T12:17:11;20.30;91.20
20546;DHT22;10431;50.228;9.112;2023-05-07T12:19:39;20.20;91.20
20546;DHT22;10431;50.228;9.112;2023-05-07T12:22:08;20.20;91.20
20546;DHT22;10431;50.228;9.112;2023-05-07T12:24:47;20.30;91.20
20546;DHT22;10431;50.228;9.112;2023-05-07T12:27:15;20.20;91.30
20546;DHT22;10431;50.228;9.112;2023-05-07T12:29:46;20.20;91.30
20546;DHT22;10431;50.228;9.112;2023-05-07T12:32:14;20.30;91.40
20546;DHT22;10431;50.228;9.112;2023-05-07T12:34:41;20.30;91.40
20546;DHT22;10431;50.228;9.112;2023-05-07T12:37:07;20.30;91.10
20546;DHT22;10431;50.228;9.112;2023-05-07T12:39:33;20.50;90.60
20546;DHT22;10431;50.228;9.112;2023-05-07T12:42:00;20.50;90.90
20546;DHT22;10431;50.228;9.112;2023-05-07T12:44:31;20.40;90.90
20546;DHT22;10431;50.228;9.112;2023-05-07T12:46:57;20.40;91.20
20546;DHT22;10431;50.228;9.112;2023-05-07T12:49:23;20.40;91.20
20546;DHT22;10431;50.228;9.112;2023-05-07T12:51:51;20.40;91.20
20546;DHT22;10431;50.228;9.112;2023-05-07T12:54:34;20.30;91.10
20546;DHT22;10431;50.228;9.112;2023-05-07T12:57:05;20.30;91.20
20546;DHT22;10431;50.228;9.112;2023-05-07T12:59:39;20.30;91.20
20546;DHT22;10431;50.228;9.112;2023-05-07T13:02:06;20.30;91.20
20546;DHT22;10431;50.228;9.112;2023-05-07T13:04:35;20.30;91.20
20546;DHT22;10431;50.228;9.112;2023-05-07T13:07:01;20.40;91.30
20546;DHT22;10431;50.228;9.112;2023-05-07T13:09:28;20.40;91.50
20546;DHT22;10431;50.228;9.112;2023-05-07T13:11:57;20.50;91.00
20546;DHT22;10431;50.228;9.112;2023-05-07T13:14:27;20.60;90.50
20546;DHT22;10431;50.228;9.112;2023-05-07T13:16:53;20.60;90.20
20546;DHT22;10431;50.228;9.112;2023-05-07T13:19:19;20.70;89.80
20546;DHT22;10431;50.228;9.112;2023-05-07T13:21:45;20.70;89.70
20546;DHT22;10431;50.228;9.112;2023-05-07T13:24:11;20.80;88.80
20546;DHT22;10431;50.228;9.112;2023-05-07T13:26:38;20.80;87.40
20546;DHT22;10431;50.228;9.112;2023-05-07T13:29:04;20.80;87.40
20546;DHT22;10431;50.228;9.112;2023-05-07T13:31:30;20.80;87.20
20546;DHT22;10431;50.228;9.112;2023-05-07T13:33:56;20.80;87.10
20546;DHT22;10431;50.228;9.112;2023-05-07T13:36:22;20.80;87.20
20546;DHT22;10431;50.228;9.112;2023-05-07T13:38:50;20.90;86.70
20546;DHT22;10431;50.228;9.112;2023-05-07T13:41:17;20.90;86.10
20546;DHT22;10431;50.228;9.112;2023-05-07T13:43:43;20.80;86.60
20546;DHT22;10431;50.228;9.112;2023-05-07T13:46:09;20.80;86.00
20546;DHT22;10431;50.228;9.112;2023-05-07T13:48:36;20.80;86.10
20546;DHT22;10431;50.228;9.112;2023-05-07T13:51:02;20.80;86.00
20546;DHT22;10431;50.228;9.112;2023-05-07T13:53:28;20.80;85.50
20546;DHT22;10431;50.228;9.112;2023-05-07T13:55:54;20.80;85.50
20546;DHT22;10431;50.228;9.112;2023-05-07T13:58:20;20.80;85.50
20546;DHT22;10431;50.228;9.112;2023-05-07T14:00:47;20.80;85.50
20546;DHT22;10431;50.228;9.112;2023-05-07T14:03:13;20.80;85.50
20546;DHT22;10431;50.228;9.112;2023-05-07T14:05:39;20.80;86.40
20546;DHT22;10431;50.228;9.112;2023-05-07T14:08:06;20.80;86.30
20546;DHT22;10431;50.228;9.112;2023-05-07T14:10:33;20.80;86.30
20546;DHT22;10431;50.228;9.112;2023-05-07T14:13:00;20.80;86.40
20546;DHT22;10431;50.228;9.112;2023-05-07T14:15:27;20.70;86.50
20546;DHT22;10431;50.228;9.112;2023-05-07T14:17:53;20.70;86.70
20546;DHT22;10431;50.228;9.112;2023-05-07T14:20:20;20.70;87.00
20546;DHT22;10431;50.228;9.112;2023-05-07T14:22:46;20.70;87.20
20546;DHT22;10431;50.228;9.112;2023-05-07T14:25:12;20.70;87.70
20546;DHT22;10431;50.228;9.112;2023-05-07T14:27:39;20.70;87.60
20546;DHT22;10431;50.228;9.112;2023-05-07T14:30:06;20.70;87.50
20546;DHT22;10431;50.228;9.112;2023-05-07T14:32:33;20.70;87.20
20546;DHT22;10431;50.228;9.112;2023-05-07T14:34:59;20.80;87.30
20546;DHT22;10431;50.228;9.112;2023-05-07T14:37:25;20.80;87.00
20546;DHT22;10431;50.228;9.112;2023-05-07T14:39:51;20.70;87.00
20546;DHT22;10431;50.228;9.112;2023-05-07T14:42:17;20.70;87.20
20546;DHT22;10431;50.228;9.112;2023-05-07T14:44:45;20.70;87.10
20546;DHT22;10431;50.228;9.112;2023-05-07T14:47:12;20.70;87.20
20546;DHT22;10431;50.228;9.112;2023-05-07T14:49:39;20.70;87.10
20546;DHT22;10431;50.228;9.112;2023-05-07T14:52:06;20.70;87.10
20546;DHT22;10431;50.228;9.112;2023-05-07T14:54:34;20.80;87.10
20546;DHT22;10431;50.228;9.112;2023-05-07T14:57:04;20.80;87.10
20546;DHT22;10431;50.228;9.112;2023-05-07T14:59:31;20.80;87.00
20546;DHT22;10431;50.228;9.112;2023-05-07T15:01:58;20.80;86.90
20546;DHT22;10431;50.228;9.112;2023-05-07T15:04:24;20.80;86.70
20546;DHT22;10431;50.228;9.112;2023-05-07T15:06:51;20.80;86.90
20546;DHT22;10431;50.228;9.112;2023-05-07T15:09:19;20.80;86.90
20546;DHT22;10431;50.228;9.112;2023-05-07T15:11:45;20.80;86.90
20546;DHT22;10431;50.228;9.112;2023-05-07T15:14:12;20.80;86.60
20546;DHT22;10431;50.228;9.112;2023-05-07T15:16:38;20.80;86.10
20546;DHT22;10431;50.228;9.112;2023-05-07T15:19:04;20.80;86.10
20546;DHT22;10431;50.228;9.112;2023-05-07T15:21:30;20.80;86.20
20546;DHT22;10431;50.228;9.112;2023-05-07T15:24:00;20.80;86.10
20546;DHT22;10431;50.228;9.112;2023-05-07T15:26:27;20.80;86.10
20546;DHT22;10431;50.228;9.112;2023-05-07T15:28:53;20.80;86.20
20546;DHT22;10431;50.228;9.112;2023-05-07T15:31:21;20.80;86.30
20546;DHT22;10431;50.228;9.112;2023-05-07T15:33:48;20.80;86.20
20546;DHT22;10431;50.228;9.112;2023-05-07T15:36:14;20.80;86.40
20546;DHT22;10431;50.228;9.112;2023-05-07T15:38:40;20.80;86.80
20546;DHT22;10431;50.228;9.112;2023-05-07T15:41:06;20.80;87.10